• Join FlightAware (Why Join?)
  • Login
  • US Flag 
07:00AM EDT


 

Airport Tracker/Info


-or-


 

Live Flight TrackerFlight Track Log ✈ BJS542 ✈ 29-Apr-2013 ✈ KTLH - KVRB

Flight Track Log - Related Links

Times and Time Zones

All times are in EDT time to prevent confusion due to time zone crossing. See the BJS542 flight status page for this flight to view local times or setup timezone preferences in your user account.

Time Position Orientation Groundspeed Altitude Reporting Facility
EDT Latitude Longitude Course Direction KTS MPH feet Rate Location/Type
09:06AM 30.3575 -84.2503 128° Southeast 228 262 25,000  Level Jacksonville Center
09:07AM 30.3292 -84.1656 111° Southeast 248 285 11,300 -4,800 Descending Jacksonville Center
09:08AM 30.2925 -84.0617 112° Southeast 301 346 15,500 4,140 Climbing Jacksonville Center
09:09AM 30.2411 -83.9578 120° Southeast 345 397 19,600 3,480 Climbing Jacksonville Center
09:10AM 30.1772 -83.8561 126° Southeast 374 430 22,500 2,160 Climbing Jacksonville Center
09:11AM 30.0818 -83.8476 128° Southeast  Level FlightAware Approximate
09:11AM 30.1069 -83.7450 126° Southeast 403 464 24,000  Level Jacksonville Center
09:12AM 30.0347 -83.6339 127° Southeast 420 483 25,000 480 Climbing Jacksonville Center
09:13AM 29.9644 -83.5231 126° Southeast 431 496 25,000  Level Jacksonville Center
09:14AM 29.8939 -83.4100 126° Southeast 436 502 25,000  Level Jacksonville Center
09:15AM 29.8233 -83.2994 126° Southeast 436 502 25,000  Level Jacksonville Center
09:16AM 29.7464 -83.1797 126° Southeast 425 489 25,000  Level Jacksonville Center
09:17AM 29.6756 -83.0694 126° Southeast 434 499 25,000  Level Jacksonville Center
09:18AM 29.6067 -82.9594 126° Southeast 434 499 25,000  Level Jacksonville Center
09:19AM 29.5317 -82.8472 128° Southeast 429 494 25,000  Level Jacksonville Center
09:20AM 29.4583 -82.7328 126° Southeast 435 501 25,000  Level Jacksonville Center
09:21AM 29.3894 -82.6233 126° Southeast 435 501 25,000  Level Jacksonville Center
09:22AM 29.3181 -82.5139 127° Southeast 429 494 25,000  Level Jacksonville Center
09:23AM 29.2447 -82.4047 128° Southeast 429 494 25,000  Level Jacksonville Center
09:24AM 29.1753 -82.2956 126° Southeast 429 494 25,000 -240 Level Jacksonville Center
09:25AM 29.1017 -82.1867 128° Southeast 429 494 24,600 -720 Descending Jacksonville Center
09:26AM 29.0281 -82.0733 127° Southeast 434 499 23,600 -900 Descending Jacksonville Center
09:28AM 28.8794 -81.8478 127° Southeast 439 505 22,000 -540 Descending Miami Center
09:29AM 28.8181 -81.7528 126° Southeast 434 499 22,000  Level Miami Center
09:30AM 28.7367 -81.6308 127° Southeast 434 499 22,000  Level Miami Center
09:31AM 28.6669 -81.5286 128° Southeast 424 488 22,000  Level Miami Center
09:32AM 28.6092 -81.4458 128° Southeast 424 488 22,000  Level Miami Center
09:33AM 28.5336 -81.3269 126° Southeast 424 488 22,000  Level Miami Center
09:34AM 28.4508 -81.2386 137° Southeast 412 474 22,000 -120 Level Miami Center
09:35AM 28.3597 -81.1456 138° Southeast 407 468 21,800 -960 Descending Miami Center
09:36AM 28.2847 -81.0694 138° Southeast 400 460 20,100 -2,220 Descending Miami Center
09:37AM 28.2039 -80.9842 137° Southeast 384 442 17,400 -2,580 Descending Miami Center
09:38AM 28.1389 -80.9181 138° Southeast 354 407 15,000 -2,460 Descending Miami Center
09:39AM 28.0700 -80.8475 138° Southeast 354 407 12,500 -2,400 Descending Miami Center
09:40AM 27.9964 -80.7931 147° Southeast 330 380 10,200 -2,160 Descending Miami Center
09:41AM 27.9267 -80.7483 150° Southeast 301 346 8,200 -2,220 Descending Miami Center
09:42AM 27.8486 -80.6989 151° Southeast 290 334 5,800 -2,100 Descending Miami Center
09:43AM 27.7850 -80.6567 150° Southeast 274 315 4,000 -1,800 Descending Miami Center
09:44AM 27.7275 -80.6172 149° Southeast 257 296 2,300 -1,020 Descending Miami Center
09:45AM 27.7019 -80.5578 116° Southeast 231 266 2,000 -540 Descending Miami Center
09:46AM 27.6828 -80.4964 109° East 221 254 1,300 -840 Descending Miami Center
09:47AM 27.6650 -80.4511 114° Southeast 165 190 400 -900 Descending Miami Center